createdAt,value
2018-01-16T00:00:02.155Z,2.7
2018-01-16T00:05:01.291Z,2.7
2018-01-16T00:10:01.408Z,2.7
2018-01-16T00:15:01.498Z,2.7
2018-01-16T00:20:01.303Z,2.7
2018-01-16T00:25:01.974Z,2.7
2018-01-16T00:30:02.334Z,2.7
2018-01-16T00:35:01.439Z,2.7
2018-01-16T00:40:01.291Z,2.7
2018-01-16T00:45:01.884Z,2.7
2018-01-16T00:50:02.225Z,2.7
2018-01-16T00:55:02.157Z,2.7
2018-01-16T01:00:01.309Z,2.7
2018-01-16T01:05:01.729Z,2.7
2018-01-16T01:10:02.553Z,2.7
2018-01-16T01:15:01.605Z,2.7
2018-01-16T01:20:02.000Z,2.7
2018-01-16T01:25:01.383Z,2.7
2018-01-16T01:30:02.243Z,2.7
2018-01-16T01:35:01.720Z,2.7
2018-01-16T01:40:01.726Z,2.7
2018-01-16T01:45:02.548Z,2.7
2018-01-16T01:50:02.072Z,2.7
2018-01-16T01:55:01.798Z,2.7
2018-01-16T02:00:01.948Z,2.7
2018-01-16T02:05:02.109Z,2.7
2018-01-16T02:10:02.528Z,3.1
2018-01-16T02:15:02.316Z,3.1
2018-01-16T02:20:01.839Z,3.1
2018-01-16T02:25:01.642Z,3.1
2018-01-16T02:30:01.397Z,3.1
2018-01-16T02:35:01.929Z,3.1
2018-01-16T02:40:02.582Z,3.1
2018-01-16T02:45:01.666Z,3.1
2018-01-16T02:50:01.399Z,3.1
2018-01-16T02:55:01.931Z,3.1
2018-01-16T03:00:01.924Z,3.1
2018-01-16T03:05:01.962Z,3.1
2018-01-16T03:10:02.088Z,3.1
2018-01-16T03:15:01.412Z,3.1
2018-01-16T03:20:01.746Z,3.1
2018-01-16T03:25:02.157Z,3.1
2018-01-16T03:30:01.350Z,3.1
2018-01-16T03:35:01.819Z,4.1
2018-01-16T03:40:01.730Z,4.4
2018-01-16T03:45:01.491Z,4.4
2018-01-16T03:50:02.503Z,4.5
2018-01-16T03:55:01.507Z,4.6
2018-01-16T04:00:01.926Z,4.6
2018-01-16T04:05:01.674Z,4.6
2018-01-16T04:10:01.854Z,4.6
2018-01-16T04:15:01.413Z,4.6
2018-01-16T04:20:01.323Z,4.6
2018-01-16T04:25:02.335Z,4.6
2018-01-16T04:30:01.599Z,4.6
2018-01-16T04:35:01.646Z,4.6
2018-01-16T04:40:01.883Z,4.6
2018-01-16T04:45:02.311Z,4.6
2018-01-16T04:50:01.828Z,4.5
2018-01-16T04:55:02.017Z,4.3
2018-01-16T05:00:02.622Z,4.3
2018-01-16T05:05:01.266Z,4.3
2018-01-16T05:10:01.572Z,4.3
2018-01-16T05:15:01.218Z,4.3
2018-01-16T05:20:02.468Z,4.3
2018-01-16T05:25:01.791Z,4.3
2018-01-16T05:30:01.862Z,4.3
2018-01-16T05:35:01.821Z,4.2
2018-01-16T05:40:02.467Z,4.2
2018-01-16T05:45:01.755Z,4.2
2018-01-16T05:50:01.551Z,4.2
2018-01-16T05:55:01.968Z,4.2
2018-01-16T06:00:02.318Z,4.2
2018-01-16T06:05:01.214Z,4.2
2018-01-16T06:10:01.231Z,4.2
2018-01-16T06:15:01.984Z,4.2
2018-01-16T06:20:02.535Z,4.2
2018-01-16T06:25:01.558Z,4.2
2018-01-16T06:30:01.292Z,4.2
2018-01-16T06:35:01.975Z,4.2
2018-01-16T06:40:02.162Z,4.2
2018-01-16T06:45:01.524Z,4.2
2018-01-16T06:50:01.614Z,4.2
2018-01-16T06:55:01.953Z,3.8
2018-01-16T07:00:01.892Z,3.8
2018-01-16T07:05:01.573Z,3.7
2018-01-16T07:10:01.895Z,3.7
2018-01-16T07:15:02.032Z,3.7
2018-01-16T07:20:01.501Z,3.7
2018-01-16T07:25:01.621Z,3.7
2018-01-16T07:30:02.040Z,3.7
2018-01-16T07:35:01.367Z,3.7
2018-01-16T07:40:02.192Z,3.7
2018-01-16T07:45:01.839Z,3.7
2018-01-16T07:50:02.388Z,3.7
2018-01-16T07:55:02.174Z,3.7
2018-01-16T08:00:01.376Z,3.5
2018-01-16T08:05:01.548Z,3.5
2018-01-16T08:10:02.410Z,3.5
2018-01-16T08:15:01.969Z,3.5
2018-01-16T08:20:01.830Z,3.5
2018-01-16T08:25:01.384Z,3.5
2018-01-16T08:30:02.341Z,3.5
2018-01-16T08:35:02.181Z,3.5
2018-01-16T08:40:02.070Z,3.5
2018-01-16T08:45:01.869Z,3.5
2018-01-16T08:50:02.342Z,3.5
2018-01-16T08:55:02.008Z,3.5
2018-01-16T09:00:01.166Z,3.5
2018-01-16T09:05:01.178Z,3.5
2018-01-16T09:10:02.318Z,3.5
2018-01-16T09:15:02.043Z,3.5
2018-01-16T09:20:01.921Z,3.5
2018-01-16T09:25:01.723Z,3.5
2018-01-16T09:30:02.410Z,3.5
2018-01-16T09:35:02.121Z,3.5
2018-01-16T09:40:01.967Z,3.5
2018-01-16T09:45:01.445Z,3.5
2018-01-16T09:50:02.155Z,3.5
2018-01-16T09:55:02.150Z,3.5
2018-01-16T10:00:01.318Z,3.5
2018-01-16T10:05:01.998Z,3.5
2018-01-16T10:10:01.632Z,3.5
2018-01-16T10:15:01.526Z,3.5
2018-01-16T10:20:01.446Z,3.5
2018-01-16T10:25:02.043Z,3.5
2018-01-16T10:30:01.395Z,3.5
2018-01-16T10:35:01.464Z,3.5
2018-01-16T10:40:01.564Z,3.5
2018-01-16T10:45:01.406Z,3.5
2018-01-16T10:50:01.466Z,3.5
2018-01-16T10:55:02.198Z,3.5
2018-01-16T11:00:01.614Z,3.7
2018-01-16T11:05:01.810Z,3.7
2018-01-16T11:10:01.787Z,3.7
2018-01-16T11:15:02.041Z,3.7
2018-01-16T11:20:01.841Z,3.7
2018-01-16T11:25:01.517Z,3.7
2018-01-16T11:30:02.138Z,3.7
2018-01-16T11:35:01.596Z,3.7
2018-01-16T11:40:01.391Z,3.7
2018-01-16T11:45:01.702Z,3.7
2018-01-16T11:50:02.345Z,3.8
2018-01-16T11:55:02.007Z,3.8
2018-01-16T12:00:01.381Z,3.9
2018-01-16T12:05:01.505Z,3.9
2018-01-16T12:10:01.785Z,3.9
2018-01-16T12:15:01.526Z,3.9
2018-01-16T12:20:01.540Z,3.9
2018-01-16T12:25:02.149Z,4
2018-01-16T12:30:01.416Z,4
2018-01-16T12:35:01.176Z,4
2018-01-16T12:40:01.979Z,4
2018-01-16T12:45:01.921Z,4.1
2018-01-16T12:50:01.714Z,4.1
2018-01-16T12:55:01.474Z,4.1
2018-01-16T13:00:02.449Z,4.1
2018-01-16T13:05:01.353Z,4.1
2018-01-16T13:10:01.285Z,4.1
2018-01-16T13:15:01.584Z,4
2018-01-16T13:20:02.196Z,4
2018-01-16T13:25:02.050Z,4
2018-01-16T13:30:01.425Z,4
2018-01-16T13:35:01.658Z,4
2018-01-16T13:40:02.135Z,4
2018-01-16T13:45:01.408Z,4
2018-01-16T13:50:02.065Z,4
2018-01-16T13:55:01.522Z,4
2018-01-16T14:00:02.459Z,4
2018-01-16T14:05:01.379Z,3.9
2018-01-16T14:10:02.193Z,3.9
2018-01-16T14:15:01.180Z,3.9
2018-01-16T14:20:02.351Z,3.9
2018-01-16T14:25:01.877Z,3.9
2018-01-16T14:30:01.484Z,3.9
2018-01-16T14:35:01.947Z,3.9
2018-01-16T14:40:01.879Z,3.9
2018-01-16T14:45:01.621Z,3.9
2018-01-16T14:50:01.849Z,3.9
2018-01-16T14:55:02.423Z,3.9
2018-01-16T15:00:02.163Z,3.6
2018-01-16T15:05:01.343Z,3.6
2018-01-16T15:10:01.784Z,3.5
2018-01-16T15:15:02.290Z,3.5
2018-01-16T15:20:01.736Z,3.5
2018-01-16T15:25:02.126Z,3.5
2018-01-16T15:30:01.675Z,3.5
2018-01-16T15:35:01.966Z,3.1
2018-01-16T15:40:01.832Z,3.1
2018-01-16T15:45:01.357Z,3.1
2018-01-16T15:50:01.822Z,3.1
2018-01-16T15:55:02.128Z,3.1
2018-01-16T16:00:01.329Z,3.1
2018-01-16T16:05:01.693Z,3.1
2018-01-16T16:10:01.638Z,2.5
2018-01-16T16:15:01.646Z,2.5
2018-01-16T16:20:01.943Z,2.5
2018-01-16T16:25:01.809Z,2.5
2018-01-16T16:30:01.276Z,2.5
2018-01-16T16:35:01.737Z,2.5
2018-01-16T16:40:02.049Z,2.5
2018-01-16T16:45:01.859Z,2.1
2018-01-16T16:50:02.941Z,2.1
2018-01-16T16:55:01.276Z,2.1
2018-01-16T17:00:01.693Z,2.1
2018-01-16T17:05:01.678Z,2.1
2018-01-16T17:10:01.742Z,2.1
2018-01-16T17:15:01.301Z,2.1
2018-01-16T17:20:01.932Z,1.8
2018-01-16T17:25:01.992Z,1.8
2018-01-16T17:30:01.691Z,1.8
2018-01-16T17:35:01.419Z,1.7
2018-01-16T17:40:02.405Z,1.7
2018-01-16T17:45:01.938Z,1.7
2018-01-16T17:50:01.240Z,1.7
2018-01-16T17:55:02.058Z,1.7
2018-01-16T18:00:02.625Z,1.7
2018-01-16T18:05:02.170Z,1.7
2018-01-16T18:10:01.375Z,1.7
2018-01-16T18:15:01.547Z,1.7
2018-01-16T18:20:01.612Z,1.7
2018-01-16T18:25:01.404Z,1.7
2018-01-16T18:30:02.089Z,1.7
2018-01-16T18:35:01.643Z,1.7
2018-01-16T18:40:02.541Z,1.7
2018-01-16T18:45:01.755Z,1.8
2018-01-16T18:50:01.380Z,1.8
2018-01-16T18:55:01.925Z,1.8
2018-01-16T19:00:01.606Z,1.9
2018-01-16T19:05:01.864Z,1.9
2018-01-16T19:10:02.762Z,1.9
2018-01-16T19:15:01.998Z,1.9
2018-01-16T19:20:01.773Z,1.9
2018-01-16T19:25:02.021Z,1.9
2018-01-16T19:30:01.260Z,1.9
2018-01-16T19:35:02.624Z,1.9
2018-01-16T19:40:01.199Z,1.9
2018-01-16T19:45:01.897Z,1.9
2018-01-16T19:50:01.650Z,1.6
2018-01-16T19:55:02.198Z,1.6
2018-01-16T20:00:01.545Z,1.6
2018-01-16T20:05:02.099Z,1.6
2018-01-16T20:10:01.495Z,1.6
2018-01-16T20:15:02.256Z,1.6
2018-01-16T20:20:02.030Z,1.6
2018-01-16T20:25:01.709Z,1.6
2018-01-16T20:30:02.732Z,1.6
2018-01-16T20:35:01.863Z,1.6
2018-01-16T20:40:02.201Z,1.6
2018-01-16T20:45:01.543Z,1.6
2018-01-16T20:50:02.052Z,1.6
2018-01-16T20:55:01.693Z,1.6
2018-01-16T21:00:01.210Z,1.6
2018-01-16T21:05:02.133Z,1.6
2018-01-16T21:10:01.313Z,1.6
2018-01-16T21:15:01.714Z,1.6
2018-01-16T21:20:01.836Z,1.6
2018-01-16T21:25:02.375Z,1.6
2018-01-16T21:30:01.161Z,1.6
2018-01-16T21:35:01.687Z,1.6
2018-01-16T21:40:01.531Z,1.6
2018-01-16T21:45:01.896Z,1.6
2018-01-16T21:50:02.053Z,1.6
2018-01-16T21:55:01.802Z,1.6
2018-01-16T22:00:01.759Z,1.6
2018-01-16T22:05:01.528Z,1.6
2018-01-16T22:10:01.432Z,1.6
2018-01-16T22:15:01.736Z,1.6
2018-01-16T22:20:01.560Z,1.6
2018-01-16T22:25:02.083Z,1.6
2018-01-16T22:30:01.648Z,1.6
2018-01-16T22:35:02.404Z,1.6
2018-01-16T22:40:01.922Z,1.6
2018-01-16T22:45:02.168Z,1.6
2018-01-16T22:50:01.224Z,1.7
2018-01-16T22:55:02.542Z,1.7
2018-01-16T23:00:02.132Z,1.7
2018-01-16T23:05:01.319Z,1.7
2018-01-16T23:10:01.384Z,1.7
2018-01-16T23:15:01.891Z,1.7
2018-01-16T23:20:02.448Z,1.7
2018-01-16T23:25:01.951Z,1.7
2018-01-16T23:30:02.353Z,1.7
2018-01-16T23:35:01.519Z,1.7
2018-01-16T23:40:02.251Z,1.7
2018-01-16T23:45:01.786Z,1.7
2018-01-16T23:50:02.758Z,1.5
2018-01-16T23:55:01.721Z,1.5
